Time;durP1;ratioP1;P1;durP2;ratioP2;P2;SDS_P1;SDS_P2;PMS_P1;PMS_P2;Temp;Humidity;BMP_temperature;BMP_pressure;BME280_temperature;BME280_humidity;BME280_pressure;Samples;Min_cycle;Max_cycle;Signal;HPM_P1;HPM_P2
2022/10/02 00:00:46;;;;;;;;;4.00;4.00;;;;;21.94;51.94;99948.98;110406;1264;13639;-57
2022/10/02 00:03:31;;;;;;;;;5.00;5.00;;;;;21.93;51.94;99942.71;110416;1264;14584;-57
2022/10/02 00:05:59;;;;;;;;;8.00;8.00;;;;;21.93;52.04;99947.64;110519;1264;15429;-61
2022/10/02 00:08:27;;;;;;;;;4.33;4.00;;;;;21.94;51.98;99949.54;110438;1264;13590;-56
2022/10/02 00:10:54;;;;;;;;;4.00;4.00;;;;;21.95;52.02;99948.75;110515;1264;12133;-57
2022/10/02 00:13:22;;;;;;;;;4.33;4.00;;;;;21.93;52.01;99949.02;110471;1263;13051;-58
2022/10/02 00:15:49;;;;;;;;;5.67;5.67;;;;;21.93;52.00;99951.13;110433;1262;15034;-59
2022/10/02 00:18:16;;;;;;;;;2.00;2.00;;;;;21.93;52.04;99955.28;110446;1264;14532;-58
2022/10/02 00:20:44;;;;;;;;;4.33;4.33;;;;;21.94;52.02;99956.77;110470;1265;14126;-57
2022/10/02 00:23:11;;;;;;;;;6.33;6.33;;;;;21.94;52.13;99954.32;110468;1264;14855;-59
2022/10/02 00:25:39;;;;;;;;;5.67;4.33;;;;;21.95;52.02;99964.56;110499;1264;13102;-59
2022/10/02 00:28:06;;;;;;;;;2.67;2.67;;;;;21.93;52.05;99958.91;110427;1265;14410;-58
2022/10/02 00:30:33;;;;;;;;;2.00;2.00;;;;;21.92;52.16;99959.59;110472;1264;14196;-59
2022/10/02 00:33:01;;;;;;;;;2.00;2.00;;;;;21.92;52.12;99962.70;110471;1265;13155;-57
2022/10/02 00:35:28;;;;;;;;;2.00;2.00;;;;;21.94;52.09;99965.06;110470;1264;14518;-58
2022/10/02 00:37:55;;;;;;;;;2.00;2.00;;;;;21.93;52.16;99965.17;110503;1264;16712;-55
2022/10/02 00:40:23;;;;;;;;;2.00;2.00;;;;;21.92;52.17;99962.83;110460;1264;13086;-57
2022/10/02 00:42:51;;;;;;;;;3.00;2.00;;;;;21.93;52.23;99964.98;110452;1264;14159;-58
2022/10/02 00:45:18;;;;;;;;;2.00;2.00;;;;;21.92;52.20;99969.80;110532;1263;14323;-58
2022/10/02 00:47:46;;;;;;;;;1.00;1.00;;;;;21.93;52.28;99970.59;110473;1262;13567;-58
2022/10/02 00:50:14;;;;;;;;;2.00;2.00;;;;;21.92;52.27;99971.43;110472;1264;13856;-56
2022/10/02 00:52:42;;;;;;;;;2.67;2.67;;;;;21.93;52.31;99976.98;110496;1265;12882;-57
2022/10/02 00:55:09;;;;;;;;;1.00;1.00;;;;;21.93;52.30;99982.38;110444;1264;15233;-59
2022/10/02 00:57:37;;;;;;;;;2.00;2.00;;;;;21.93;52.29;99980.83;110283;1264;13059;-54
2022/10/02 01:00:06;;;;;;;;;2.67;2.00;;;;;21.93;52.27;99983.14;110406;1265;15085;-58
2022/10/02 01:02:33;;;;;;;;;2.00;2.00;;;;;21.92;52.29;99984.31;110443;1264;15473;-58
2022/10/02 01:05:01;;;;;;;;;2.00;2.00;;;;;21.93;52.30;99986.04;110445;1262;14451;-57
2022/10/02 01:07:28;;;;;;;;;4.33;2.67;;;;;21.92;52.33;99988.52;110500;1264;13411;-60
2022/10/02 01:09:56;;;;;;;;;1.67;1.67;;;;;21.92;52.38;99992.04;110524;1264;16302;-57
2022/10/02 01:12:23;;;;;;;;;1.00;1.00;;;;;21.92;52.38;99999.47;110417;1264;13074;-60
2022/10/02 01:14:50;;;;;;;;;3.00;2.00;;;;;21.93;52.35;99999.17;110443;1265;13004;-60
2022/10/02 01:17:18;;;;;;;;;1.67;1.67;;;;;21.94;52.39;100006.79;110440;1265;13161;-56
2022/10/02 01:19:45;;;;;;;;;1.00;1.00;;;;;21.93;52.38;100006.23;110419;1264;17663;-58
2022/10/02 01:22:12;;;;;;;;;2.00;2.00;;;;;21.93;52.38;100007.02;110410;1262;13231;-58
2022/10/02 01:24:40;;;;;;;;;2.00;2.00;;;;;21.93;52.35;100009.66;110438;1262;14648;-59
2022/10/02 01:27:07;;;;;;;;;2.00;2.00;;;;;21.93;52.34;100010.13;110529;1262;14045;-56
2022/10/02 01:29:35;;;;;;;;;3.00;2.00;;;;;21.93;52.39;100012.48;110457;1263;15036;-57
2022/10/02 01:32:02;;;;;;;;;2.67;2.00;;;;;21.92;52.37;100017.05;110524;1262;14934;-57
2022/10/02 01:34:29;;;;;;;;;2.00;2.00;;;;;21.92;52.37;100019.33;110471;1264;12670;-59
2022/10/02 01:36:57;;;;;;;;;1.00;1.00;;;;;21.92;52.36;100016.77;110433;1264;14554;-57
2022/10/02 01:39:25;;;;;;;;;1.00;1.00;;;;;21.91;52.40;100021.76;110461;1264;14700;-59
2022/10/02 01:41:54;;;;;;;;;2.00;2.00;;;;;21.92;52.31;100022.02;110447;1262;12684;-56
2022/10/02 01:44:21;;;;;;;;;2.67;2.67;;;;;21.92;52.31;100023.64;110436;1264;14799;-60
2022/10/02 01:46:49;;;;;;;;;2.00;2.00;;;;;21.92;52.31;100024.61;110469;1265;12652;-58
2022/10/02 01:49:16;;;;;;;;;2.00;2.00;;;;;21.92;52.27;100024.90;110445;1263;13147;-58
2022/10/02 01:51:43;;;;;;;;;2.00;1.67;;;;;21.92;52.30;100029.52;110457;1264;14391;-58
2022/10/02 01:54:11;;;;;;;;;2.00;2.00;;;;;21.90;52.36;100031.16;110476;1264;14528;-59
2022/10/02 01:56:39;;;;;;;;;3.00;2.67;;;;;21.90;52.37;100032.96;110534;1262;14003;-59
2022/10/02 01:59:06;;;;;;;;;2.00;2.00;;;;;21.90;52.38;100036.98;110484;1264;14319;-58
2022/10/02 02:01:33;;;;;;;;;2.00;2.00;;;;;21.90;52.41;100038.45;110486;1264;13194;-58
2022/10/02 02:04:01;;;;;;;;;1.00;1.00;;;;;21.91;52.36;100040.77;110447;1263;14747;-59
2022/10/02 02:06:28;;;;;;;;;3.00;2.00;;;;;21.91;52.29;100041.61;110478;1263;13079;-59
2022/10/02 02:08:56;;;;;;;;;1.00;1.00;;;;;21.92;52.33;100045.56;110451;1265;14435;-58
2022/10/02 02:11:23;;;;;;;;;3.00;2.00;;;;;21.91;52.34;100044.04;110464;1262;14199;-58
2022/10/02 02:13:51;;;;;;;;;1.50;1.50;;;;;21.91;52.45;100054.16;110493;1262;13084;-60
2022/10/02 02:16:18;;;;;;;;;1.00;1.00;;;;;21.90;52.36;100049.20;110442;1262;14217;-57
2022/10/02 02:18:45;;;;;;;;;1.50;1.50;;;;;21.92;52.36;100052.02;110467;1264;14314;-60
2022/10/02 02:21:13;;;;;;;;;1.00;1.00;;;;;21.90;52.49;100049.71;110438;1264;14412;-58
2022/10/02 02:23:40;;;;;;;;;2.00;2.00;;;;;21.91;52.47;100055.71;110454;1265;15378;-59
2022/10/02 02:26:08;;;;;;;;;1.00;1.00;;;;;21.90;52.47;100060.75;110462;1265;14224;-59
2022/10/02 02:28:35;;;;;;;;;1.00;1.00;;;;;21.89;52.53;100061.50;110543;1262;12727;-57
2022/10/02 02:31:03;;;;;;;;;2.00;2.00;;;;;21.90;52.49;100065.36;110462;1262;13220;-59
2022/10/02 02:33:30;;;;;;;;;2.00;2.00;;;;;21.90;52.51;100065.62;110443;1264;14026;-60
2022/10/02 02:35:57;;;;;;;;;2.00;1.00;;;;;21.90;52.52;100061.96;110434;1265;13837;-58
2022/10/02 02:38:26;;;;;;;;;1.00;1.00;;;;;21.90;52.45;100065.16;110446;1264;13893;-57
2022/10/02 02:40:53;;;;;;;;;1.00;1.00;;;;;21.90;52.47;100066.54;110494;1264;13006;-59
2022/10/02 02:43:21;;;;;;;;;2.00;2.00;;;;;21.91;52.47;100068.05;110434;1265;14607;-58
2022/10/02 02:45:48;;;;;;;;;1.00;1.00;;;;;21.91;52.50;100069.61;110461;1262;12782;-56
2022/10/02 02:48:16;;;;;;;;;1.00;1.00;;;;;21.90;52.49;100069.35;110444;1263;13825;-59
2022/10/02 02:50:43;;;;;;;;;1.00;1.00;;;;;21.88;52.56;100068.91;110465;1263;14646;-58
2022/10/02 02:53:11;;;;;;;;;1.00;1.00;;;;;21.88;52.56;100073.30;110364;1264;13742;-60
2022/10/02 02:55:38;;;;;;;;;1.00;1.00;;;;;21.90;52.51;100073.93;110462;1264;12786;-59
2022/10/02 02:58:06;;;;;;;;;1.00;1.00;;;;;21.90;52.47;100079.22;110454;1264;14237;-60
2022/10/02 03:00:33;;;;;;;;;2.00;2.00;;;;;21.90;52.59;100079.63;110460;1263;13622;-57
2022/10/02 03:03:00;;;;;;;;;1.00;1.00;;;;;21.90;52.61;100080.19;110455;1264;12859;-59
2022/10/02 03:05:28;;;;;;;;;1.50;1.50;;;;;21.89;52.62;100084.08;110437;1262;13108;-57
2022/10/02 03:07:56;;;;;;;;;2.00;2.00;;;;;21.88;52.62;100082.92;110386;1264;11870;-60
2022/10/02 03:10:23;;;;;;;;;2.67;2.00;;;;;21.89;52.52;100090.84;110387;1263;13168;-58
2022/10/02 03:12:50;;;;;;;;;1.00;1.00;;;;;21.88;52.58;100089.11;110499;1264;13482;-55
2022/10/02 03:15:18;;;;;;;;;2.00;2.00;;;;;21.88;52.62;100090.38;110440;1264;13528;-59
2022/10/02 03:17:45;;;;;;;;;1.00;1.00;;;;;21.89;52.64;100094.33;110422;1262;18158;-57
2022/10/02 03:20:12;;;;;;;;;1.00;1.00;;;;;21.87;52.72;100093.93;110498;1265;13787;-59
2022/10/02 03:22:40;;;;;;;;;1.00;1.00;;;;;21.88;52.65;100098.26;110487;1264;12886;-58
2022/10/02 03:25:08;;;;;;;;;1.33;1.33;;;;;21.87;52.68;100094.50;110457;1262;13310;-58
2022/10/02 03:27:35;;;;;;;;;1.00;1.00;;;;;21.89;52.72;100098.48;110458;1264;13831;-57
2022/10/02 03:30:03;;;;;;;;;1.00;1.00;;;;;21.90;52.66;100099.45;110438;1262;13446;-59
2022/10/02 03:32:30;;;;;;;;;1.67;1.67;;;;;21.90;52.66;100102.42;110436;1264;13911;-58
2022/10/02 03:34:58;;;;;;;;;1.33;1.33;;;;;21.88;52.71;100101.63;110494;1264;12378;-55
2022/10/02 03:37:25;;;;;;;;;1.00;1.00;;;;;21.89;52.67;100100.79;110433;1264;14779;-55
2022/10/02 03:39:53;;;;;;;;;1.00;1.00;;;;;21.89;52.65;100098.23;110436;1265;13642;-59
2022/10/02 03:42:20;;;;;;;;;2.00;2.00;;;;;21.91;52.58;100106.16;110418;1262;14532;-56
2022/10/02 03:44:48;;;;;;;;;1.00;1.00;;;;;21.89;52.69;100103.52;110470;1264;14291;-59
2022/10/02 03:47:15;;;;;;;;;2.00;2.00;;;;;21.89;52.71;100109.18;110476;1264;13141;-60
2022/10/02 03:49:43;;;;;;;;;1.00;1.00;;;;;21.88;52.70;100107.41;110517;1264;13144;-59
2022/10/02 03:52:10;;;;;;;;;3.00;2.00;;;;;21.90;52.71;100110.16;110410;1262;14159;-60
2022/10/02 03:54:38;;;;;;;;;1.00;1.00;;;;;21.88;52.76;100110.05;110425;1265;13302;-60
2022/10/02 03:57:05;;;;;;;;;1.00;1.00;;;;;21.87;52.78;100115.24;110434;1264;13868;-58
2022/10/02 03:59:32;;;;;;;;;2.00;2.00;;;;;21.87;52.78;100116.48;110494;1265;13322;-59
2022/10/02 04:02:00;;;;;;;;;1.00;1.00;;;;;21.86;52.77;100118.39;110517;1264;13028;-59
2022/10/02 04:04:27;;;;;;;;;2.00;2.00;;;;;21.87;52.79;100118.82;110470;1262;12997;-59
2022/10/02 04:06:55;;;;;;;;;1.33;1.33;;;;;21.87;52.77;100116.63;110425;1264;13763;-57
2022/10/02 04:09:23;;;;;;;;;1.00;1.00;;;;;21.87;52.73;100117.98;110487;1263;14367;-58
2022/10/02 04:11:50;;;;;;;;;1.00;1.00;;;;;21.87;52.78;100116.84;110443;1264;13368;-59
2022/10/02 04:14:18;;;;;;;;;1.00;1.00;;;;;21.88;52.73;100122.60;110445;1264;13850;-60
2022/10/02 04:16:45;;;;;;;;;1.00;1.00;;;;;21.87;52.72;100118.48;110506;1263;13148;-60
2022/10/02 04:19:13;;;;;;;;;2.67;2.67;;;;;21.87;52.71;100120.63;110449;1262;13607;-60
2022/10/02 04:21:40;;;;;;;;;1.00;1.00;;;;;21.87;52.76;100121.06;110454;1265;14359;-57
2022/10/02 04:24:08;;;;;;;;;2.00;2.00;;;;;21.87;52.78;100129.05;110463;1264;13640;-58
2022/10/02 04:26:35;;;;;;;;;2.00;2.00;;;;;21.86;52.78;100131.17;110460;1262;14312;-60
2022/10/02 04:29:03;;;;;;;;;1.50;1.00;;;;;21.86;52.83;100134.75;110377;1264;13191;-57
2022/10/02 04:31:30;;;;;;;;;2.00;2.00;;;;;21.85;52.76;100141.88;110478;1264;12791;-58
2022/10/02 04:33:58;;;;;;;;;2.00;1.00;;;;;21.86;52.83;100146.38;110462;1263;14508;-57
2022/10/02 04:36:25;;;;;;;;;1.50;1.50;;;;;21.87;52.82;100145.01;110426;1264;21969;-59
2022/10/02 04:38:53;;;;;;;;;2.00;1.00;;;;;21.87;52.82;100149.08;110445;1264;13987;-58
2022/10/02 04:41:20;;;;;;;;;1.33;1.33;;;;;21.86;52.80;100151.37;110337;1264;12023;-58
2022/10/02 04:43:48;;;;;;;;;2.00;2.00;;;;;21.86;52.86;100149.31;110388;1264;13040;-59
2022/10/02 04:46:15;;;;;;;;;2.00;1.67;;;;;21.87;52.81;100147.27;110440;1264;13284;-59
2022/10/02 04:48:43;;;;;;;;;1.00;1.00;;;;;21.87;52.85;100154.15;110433;1263;14262;-58
2022/10/02 04:51:10;;;;;;;;;1.33;1.33;;;;;21.86;52.81;100157.67;110457;1264;13935;-59
2022/10/02 04:53:37;;;;;;;;;2.00;2.00;;;;;21.86;52.84;100161.88;110421;1265;13293;-57
2022/10/02 04:56:05;;;;;;;;;1.00;1.00;;;;;21.86;52.87;100160.78;110509;1265;12536;-58
2022/10/02 04:58:32;;;;;;;;;1.00;1.00;;;;;21.87;52.92;100163.56;110451;1264;13116;-56
2022/10/02 05:00:59;;;;;;;;;1.00;1.00;;;;;21.89;52.84;100167.02;110427;1264;14324;-57
2022/10/02 05:03:27;;;;;;;;;2.00;2.00;;;;;21.90;52.89;100171.65;110436;1264;13465;-59
2022/10/02 05:05:54;;;;;;;;;1.33;1.33;;;;;21.90;52.94;100172.40;110390;1264;13609;-60
2022/10/02 05:08:21;;;;;;;;;2.00;2.00;;;;;21.90;53.21;100173.66;110435;1264;14223;-57
2022/10/02 05:10:49;;;;;;;;;1.00;1.00;;;;;21.91;53.40;100180.41;110475;1264;11882;-58
2022/10/02 05:13:16;;;;;;;;;2.00;1.33;;;;;21.90;53.49;100182.52;110334;1264;15402;-56
2022/10/02 05:15:44;;;;;;;;;1.33;1.33;;;;;21.90;53.55;100179.99;110376;1264;14744;-54
2022/10/02 05:18:12;;;;;;;;;1.00;1.00;;;;;21.90;53.62;100183.61;110455;1263;14553;-58
2022/10/02 05:20:39;;;;;;;;;2.33;2.33;;;;;21.90;53.59;100184.41;110423;1264;13396;-57
2022/10/02 05:23:07;;;;;;;;;2.00;2.00;;;;;21.90;53.47;100184.86;110458;1264;13428;-60
2022/10/02 05:25:34;;;;;;;;;2.00;2.00;;;;;21.90;53.48;100180.12;110408;1264;12958;-59
2022/10/02 05:28:01;;;;;;;;;3.00;2.00;;;;;21.91;53.52;100185.54;110426;1262;13474;-58
2022/10/02 05:30:29;;;;;;;;;2.33;2.33;;;;;21.91;53.48;100185.88;110394;1262;14129;-59
2022/10/02 05:32:56;;;;;;;;;2.00;2.00;;;;;21.90;53.47;100194.35;110421;1264;12779;-57
2022/10/02 05:35:24;;;;;;;;;2.00;2.00;;;;;21.91;53.49;100196.78;110437;1262;16666;-58
2022/10/02 05:37:52;;;;;;;;;1.67;1.67;;;;;21.91;53.51;100202.88;110548;1264;13065;-57
2022/10/02 05:40:19;;;;;;;;;1.00;1.00;;;;;21.93;53.54;100201.79;110437;1264;15108;-59
2022/10/02 05:42:46;;;;;;;;;2.00;2.00;;;;;21.95;53.58;100203.00;110433;1264;14881;-58
2022/10/02 05:45:14;;;;;;;;;2.00;2.00;;;;;21.98;53.90;100209.27;110433;1262;14395;-61
2022/10/02 05:47:41;;;;;;;;;2.00;2.00;;;;;22.01;54.34;100213.07;110436;1263;12936;-59
2022/10/02 05:50:09;;;;;;;;;3.50;2.00;;;;;22.02;54.51;100213.67;110500;1262;13226;-60
2022/10/02 05:52:36;;;;;;;;;2.00;2.00;;;;;22.03;54.49;100217.50;110469;1264;12962;-58
2022/10/02 05:55:04;;;;;;;;;1.33;1.33;;;;;22.03;54.48;100218.13;110451;1262;13105;-58
2022/10/02 05:57:31;;;;;;;;;2.00;2.00;;;;;22.03;54.63;100219.35;110422;1264;15126;-59
2022/10/02 05:59:59;;;;;;;;;2.00;2.00;;;;;22.05;54.59;100221.66;110465;1264;13516;-58
2022/10/02 06:02:27;;;;;;;;;5.00;5.00;;;;;22.07;54.59;100224.84;110453;1262;13996;-57
2022/10/02 06:04:54;;;;;;;;;2.00;2.00;;;;;22.09;54.49;100224.95;110453;1264;13164;-58
2022/10/02 06:07:22;;;;;;;;;2.00;2.00;;;;;22.18;54.35;100226.04;110476;1262;14151;-57
2022/10/02 06:09:49;;;;;;;;;3.00;2.00;;;;;22.25;54.33;100227.77;110466;1262;14662;-59
2022/10/02 06:12:16;;;;;;;;;1.33;1.33;;;;;22.26;54.25;100231.23;110497;1261;14734;-57
2022/10/02 06:14:44;;;;;;;;;2.00;2.00;;;;;22.25;54.29;100230.67;110472;1264;13806;-59
2022/10/02 06:17:11;;;;;;;;;1.00;1.00;;;;;22.26;54.69;100233.62;110467;1264;14417;-60
2022/10/02 06:19:38;;;;;;;;;1.00;1.00;;;;;22.23;54.76;100231.64;110451;1264;14913;-60
2022/10/02 06:22:06;;;;;;;;;2.67;2.67;;;;;22.22;54.82;100236.77;110457;1264;14014;-59
2022/10/02 06:24:33;;;;;;;;;2.00;2.00;;;;;22.20;55.09;100235.55;110484;1264;13376;-55
2022/10/02 06:27:02;;;;;;;;;1.00;1.00;;;;;22.26;55.77;100233.15;110456;1262;14768;-58
2022/10/02 06:29:29;;;;;;;;;3.00;3.00;;;;;22.31;55.95;100235.16;110461;1264;12684;-59
2022/10/02 06:31:57;;;;;;;;;2.67;2.67;;;;;22.35;55.90;100241.12;110465;1264;12986;-59
2022/10/02 06:34:24;;;;;;;;;2.00;2.00;;;;;22.37;55.73;100236.05;110443;1264;15676;-59
2022/10/02 06:36:52;;;;;;;;;1.67;1.67;;;;;22.34;56.13;100234.80;110431;1263;13892;-60
2022/10/02 06:39:19;;;;;;;;;2.00;2.00;;;;;22.33;56.20;100245.39;110447;1262;13343;-61
2022/10/02 06:41:46;;;;;;;;;2.00;2.00;;;;;22.31;56.29;100241.30;110437;1263;14452;-59
2022/10/02 06:44:15;;;;;;;;;2.00;2.00;;;;;22.31;56.47;100242.23;110490;1262;13215;-60
2022/10/02 06:46:43;;;;;;;;;2.00;2.00;;;;;22.36;56.45;100245.37;110474;1265;13063;-60
2022/10/02 06:49:10;;;;;;;;;2.00;2.00;;;;;22.41;56.84;100246.33;110438;1263;14493;-61
2022/10/02 06:51:38;;;;;;;;;2.00;2.00;;;;;22.43;57.03;100246.30;110408;1264;13908;-59
2022/10/02 06:54:07;;;;;;;;;3.00;2.67;;;;;22.41;57.20;100249.05;110489;1265;13929;-59
2022/10/02 06:56:34;;;;;;;;;2.33;2.00;;;;;22.42;57.42;100248.27;110419;1264;14855;-61
2022/10/02 06:59:03;;;;;;;;;2.33;2.33;;;;;22.41;57.84;100248.88;110471;1264;13153;-58
2022/10/02 07:01:30;;;;;;;;;2.00;2.00;;;;;22.42;58.06;100248.81;110446;1265;14367;-56
2022/10/02 07:03:58;;;;;;;;;2.00;2.00;;;;;22.40;58.30;100250.09;110445;1264;13450;-60
2022/10/02 07:06:25;;;;;;;;;2.00;2.00;;;;;22.39;58.45;100251.81;110443;1263;14214;-61
2022/10/02 07:08:53;;;;;;;;;2.00;2.00;;;;;22.42;58.85;100257.21;110448;1264;13889;-62
2022/10/02 07:11:20;;;;;;;;;2.00;2.00;;;;;22.40;58.96;100256.06;110476;1264;13933;-58
2022/10/02 07:13:48;;;;;;;;;1.00;1.00;;;;;22.40;59.17;100259.17;110456;1264;12517;-62
2022/10/02 07:16:15;;;;;;;;;2.00;2.00;;;;;22.40;59.08;100264.66;110476;1264;14515;-61
2022/10/02 07:18:43;;;;;;;;;2.00;2.00;;;;;22.37;58.91;100265.21;110447;1263;13252;-59
2022/10/02 07:21:10;;;;;;;;;2.00;2.00;;;;;22.35;58.86;100264.77;110423;1262;13675;-57
2022/10/02 07:23:37;;;;;;;;;2.00;2.00;;;;;22.35;58.75;100265.02;110327;1264;12376;-57
2022/10/02 07:26:05;;;;;;;;;1.33;1.33;;;;;22.35;58.91;100263.13;110452;1264;13004;-57
2022/10/02 07:28:32;;;;;;;;;1.33;1.33;;;;;22.35;58.86;100262.95;110427;1262;14048;-61
2022/10/02 07:31:00;;;;;;;;;2.33;2.00;;;;;22.36;58.69;100264.02;110417;1265;14558;-60
2022/10/02 07:33:27;;;;;;;;;2.00;2.00;;;;;22.38;58.59;100261.89;110422;1264;13690;-61
2022/10/02 07:35:55;;;;;;;;;2.00;2.00;;;;;22.38;58.08;100263.95;110358;1265;112382;-61
2022/10/02 07:38:22;;;;;;;;;2.00;2.00;;;;;22.42;57.82;100263.02;110429;1264;13497;-60
2022/10/02 07:40:50;;;;;;;;;1.67;1.67;;;;;22.40;57.76;100266.61;110480;1264;13091;-62
2022/10/02 07:43:18;;;;;;;;;2.67;2.00;;;;;22.33;57.62;100276.31;110489;1264;12929;-59
2022/10/02 07:45:45;;;;;;;;;2.00;2.00;;;;;22.23;57.12;100273.48;110417;1264;13819;-61
2022/10/02 07:48:13;;;;;;;;;2.00;2.00;;;;;22.17;57.13;100269.29;110425;1264;13954;-61
2022/10/02 07:50:41;;;;;;;;;2.00;2.00;;;;;22.16;57.04;100275.10;110418;1265;13050;-60
2022/10/02 07:53:09;;;;;;;;;2.00;2.00;;;;;22.15;56.80;100278.30;110426;1264;12017;-62
2022/10/02 07:55:36;;;;;;;;;2.00;2.00;;;;;22.16;56.67;100276.23;110367;1264;13030;-59
2022/10/02 07:58:03;;;;;;;;;5.00;3.00;;;;;22.15;56.53;100279.06;110361;1264;12933;-60
2022/10/02 08:00:31;;;;;;;;;2.00;2.00;;;;;22.13;56.55;100274.39;110296;1262;13409;-61
2022/10/02 08:02:58;;;;;;;;;1.00;1.00;;;;;22.14;56.41;100274.64;110378;1264;12830;-61
2022/10/02 08:05:26;;;;;;;;;2.00;2.00;;;;;22.14;56.25;100272.25;110422;1264;14265;-60
2022/10/02 08:07:53;;;;;;;;;1.33;1.33;;;;;22.13;56.31;100272.70;110457;1264;12050;-60
2022/10/02 08:10:21;;;;;;;;;2.00;2.00;;;;;22.13;56.28;100271.65;110342;1264;13652;-61
2022/10/02 08:12:48;;;;;;;;;2.00;2.00;;;;;22.13;56.25;100272.37;110420;1264;13813;-60
2022/10/02 08:15:16;;;;;;;;;2.00;2.00;;;;;22.12;56.20;100272.15;110418;1264;14191;-60
2022/10/02 08:17:43;;;;;;;;;1.00;1.00;;;;;22.11;56.20;100276.04;110384;1263;17910;-60
2022/10/02 08:20:11;;;;;;;;;2.00;2.00;;;;;22.10;56.26;100276.19;110482;1264;13151;-62
2022/10/02 08:22:38;;;;;;;;;1.33;1.33;;;;;22.09;56.27;100277.52;110362;1265;13191;-61
2022/10/02 08:25:06;;;;;;;;;2.00;2.00;;;;;22.10;56.11;100275.77;110409;1264;13268;-57
2022/10/02 08:27:34;;;;;;;;;2.00;2.00;;;;;22.11;56.02;100278.09;110467;1262;13649;-62
2022/10/02 08:30:02;;;;;;;;;1.00;1.00;;;;;22.10;56.12;100273.80;110482;1262;14498;-59
2022/10/02 08:32:30;;;;;;;;;1.33;1.33;;;;;22.10;56.06;100272.29;110440;1264;13912;-59
2022/10/02 08:34:59;;;;;;;;;2.00;2.00;;;;;22.10;55.96;100273.00;110501;1265;12395;-61
2022/10/02 08:37:27;;;;;;;;;1.00;1.00;;;;;22.10;55.96;100277.79;110445;1262;15003;-61
2022/10/02 08:39:54;;;;;;;;;2.00;2.00;;;;;22.08;55.93;100265.96;110445;1264;14917;-61
2022/10/02 08:42:22;;;;;;;;;2.00;2.00;;;;;22.08;55.95;100270.02;110463;1264;12829;-61
2022/10/02 08:44:49;;;;;;;;;2.00;1.00;;;;;22.07;55.91;100269.77;110438;1263;13245;-58
2022/10/02 08:47:17;;;;;;;;;2.00;2.00;;;;;22.07;55.87;100277.15;110435;1265;13320;-60
2022/10/02 08:49:44;;;;;;;;;2.00;2.00;;;;;22.08;55.78;100281.25;110483;1264;12638;-60
2022/10/02 08:52:12;;;;;;;;;2.00;2.00;;;;;22.10;55.76;100278.58;110417;1265;14056;-59
2022/10/02 08:54:41;;;;;;;;;1.33;1.33;;;;;22.10;55.78;100278.92;110428;1264;13421;-60
2022/10/02 08:57:10;;;;;;;;;2.00;2.00;;;;;22.09;55.81;100275.73;110447;1264;13218;-60
2022/10/02 08:59:38;;;;;;;;;2.00;2.00;;;;;22.09;55.78;100271.36;110425;1263;13194;-61
2022/10/02 09:02:08;;;;;;;;;1.00;1.00;;;;;22.09;55.86;100269.71;110404;1264;13228;-60
2022/10/02 09:04:39;;;;;;;;;1.67;1.67;;;;;22.11;55.99;100267.89;110375;1264;13739;-61
2022/10/02 09:07:06;;;;;;;;;1.33;1.33;;;;;22.15;55.77;100265.61;110449;1264;14144;-61
2022/10/02 09:09:34;;;;;;;;;1.67;1.67;;;;;22.19;55.86;100269.98;110370;1264;14670;-61
2022/10/02 09:12:01;;;;;;;;;2.00;2.00;;;;;22.24;55.88;100267.00;110526;1262;14581;-58
2022/10/02 09:14:29;;;;;;;;;2.00;2.00;;;;;22.26;55.91;100274.52;110480;1264;13283;-62
2022/10/02 09:16:56;;;;;;;;;2.00;2.00;;;;;22.24;55.77;100278.45;110376;1264;12972;-62
2022/10/02 09:19:23;;;;;;;;;3.00;2.33;;;;;22.19;55.94;100276.70;110488;1265;21539;-61
2022/10/02 09:21:51;;;;;;;;;1.00;1.00;;;;;22.15;56.14;100271.70;110465;1262;13181;-60
2022/10/02 09:24:18;;;;;;;;;2.00;2.00;;;;;22.12;56.13;100272.40;110462;1264;14532;-62
2022/10/02 09:26:46;;;;;;;;;1.00;1.00;;;;;22.10;56.17;100271.20;110468;1264;14951;-61
2022/10/02 09:29:14;;;;;;;;;1.33;1.33;;;;;22.11;56.14;100273.45;110566;1264;12794;-60
2022/10/02 09:31:41;;;;;;;;;2.00;2.00;;;;;22.13;56.08;100270.93;110405;1264;12622;-60
2022/10/02 09:34:09;;;;;;;;;2.00;1.00;;;;;22.12;56.11;100274.60;110314;1262;14788;-62
2022/10/02 09:36:36;;;;;;;;;2.00;2.00;;;;;22.13;56.02;100274.73;110351;1264;13913;-61
2022/10/02 09:39:04;;;;;;;;;3.33;2.00;;;;;22.14;55.94;100276.27;110313;1264;15038;-60
2022/10/02 09:41:32;;;;;;;;;2.00;2.00;;;;;22.13;55.95;100273.42;110275;1264;14259;-60
2022/10/02 09:44:00;;;;;;;;;1.33;1.33;;;;;22.12;55.95;100277.44;110438;1264;13862;-61
2022/10/02 09:46:29;;;;;;;;;1.00;1.00;;;;;22.12;55.95;100279.20;110465;1264;14633;-60
2022/10/02 09:48:58;;;;;;;;;1.00;1.00;;;;;22.12;55.88;100283.61;110482;1264;13157;-59
2022/10/02 09:51:26;;;;;;;;;1.00;1.00;;;;;22.11;55.87;100285.65;110499;1264;14446;-61
2022/10/02 09:53:53;;;;;;;;;1.50;1.00;;;;;22.11;55.81;100289.14;110503;1264;13805;-60
2022/10/02 09:56:21;;;;;;;;;1.33;1.33;;;;;22.11;55.73;100286.02;110405;1262;14158;-59
2022/10/02 09:58:48;;;;;;;;;1.00;1.00;;;;;22.11;55.71;100291.88;110497;1264;13020;-59
2022/10/02 10:01:15;;;;;;;;;2.00;2.00;;;;;22.09;55.73;100288.48;110397;1264;13546;-62
2022/10/02 10:03:43;;;;;;;;;2.00;2.00;;;;;22.09;55.64;100288.31;110361;1264;14397;-58
2022/10/02 10:06:10;;;;;;;;;2.00;2.00;;;;;22.10;55.60;100286.69;110347;1262;14293;-60
2022/10/02 10:08:38;;;;;;;;;2.00;2.00;;;;;22.10;55.62;100286.02;110455;1264;13111;-63
2022/10/02 10:11:05;;;;;;;;;2.00;2.00;;;;;22.10;55.51;100285.80;110495;1264;13007;-63
2022/10/02 10:13:33;;;;;;;;;1.00;1.00;;;;;22.10;55.54;100287.27;110428;1262;14354;-62
2022/10/02 10:16:00;;;;;;;;;1.00;1.00;;;;;22.11;55.46;100286.23;110456;1264;14398;-61
2022/10/02 10:18:28;;;;;;;;;1.00;1.00;;;;;22.12;55.48;100287.42;110484;1263;14305;-61
2022/10/02 10:20:55;;;;;;;;;1.50;1.50;;;;;22.13;55.39;100285.64;110417;1265;14535;-59
2022/10/02 10:23:23;;;;;;;;;1.00;1.00;;;;;22.11;55.40;100289.71;110470;1264;14706;-61
2022/10/02 10:25:50;;;;;;;;;2.00;2.00;;;;;22.10;55.40;100289.46;110438;1262;14431;-59
2022/10/02 10:28:18;;;;;;;;;1.00;1.00;;;;;22.09;55.36;100290.08;110492;1262;14928;-61
2022/10/02 10:30:46;;;;;;;;;1.00;1.00;;;;;22.08;55.35;100284.73;110444;1264;14481;-60
2022/10/02 10:33:13;;;;;;;;;2.00;2.00;;;;;22.08;55.33;100291.14;110457;1263;13467;-61
2022/10/02 10:35:41;;;;;;;;;2.00;2.00;;;;;22.08;55.32;100289.81;110413;1264;14541;-61
2022/10/02 10:40:53;;;;;;;;;1.00;1.00;;;;;22.14;55.18;100294.08;110510;1262;13320;-60
2022/10/02 10:43:20;;;;;;;;;2.00;2.00;;;;;22.17;55.43;100290.75;110394;1264;13925;-58
2022/10/02 10:45:48;;;;;;;;;1.00;1.00;;;;;22.20;55.52;100292.75;110435;1262;13590;-59
2022/10/02 10:48:16;;;;;;;;;3.00;3.00;;;;;22.20;55.68;100292.75;110390;1264;14229;-61
2022/10/02 10:50:44;;;;;;;;;5.00;4.33;;;;;22.19;55.65;100288.34;110388;1264;14724;-61
2022/10/02 10:53:11;;;;;;;;;2.00;2.00;;;;;22.20;55.72;100291.73;110456;1262;13157;-60
2022/10/02 10:55:38;;;;;;;;;2.00;2.00;;;;;22.23;56.06;100291.13;110306;1262;14264;-61
2022/10/02 10:58:06;;;;;;;;;2.00;2.00;;;;;22.26;56.02;100286.70;110395;1264;12842;-60
2022/10/02 11:00:33;;;;;;;;;1.67;1.67;;;;;22.28;55.91;100287.52;110221;1264;13865;-61
2022/10/02 11:03:01;;;;;;;;;2.00;2.00;;;;;22.28;55.78;100283.57;110133;1264;14498;-59
2022/10/02 11:05:28;;;;;;;;;2.50;2.50;;;;;22.27;56.00;100278.35;110354;1264;15764;-59
2022/10/02 11:07:56;;;;;;;;;3.00;3.00;;;;;22.26;56.02;100278.10;110307;1262;12555;-60
2022/10/02 11:10:23;;;;;;;;;2.00;2.00;;;;;22.25;55.94;100279.73;110376;1262;15160;-59
2022/10/02 11:12:51;;;;;;;;;3.00;3.00;;;;;22.25;56.11;100278.44;110223;1264;12819;-61
2022/10/02 11:15:19;;;;;;;;;3.00;3.00;;;;;22.26;56.06;100277.47;110411;1262;13041;-61
2022/10/02 11:17:47;;;;;;;;;5.00;2.00;;;;;22.28;56.89;100273.56;110362;1264;13550;-59
2022/10/02 11:20:14;;;;;;;;;3.00;3.00;;;;;22.31;57.60;100270.62;110494;1262;13161;-60